Time;durP1;ratioP1;P1;durP2;ratioP2;P2;SDS_P1;SDS_P2;PMS_P1;PMS_P2;Temp;Humidity;BMP_temperature;BMP_pressure;BME280_temperature;BME280_humidity;BME280_pressure;Samples;Min_cycle;Max_cycle;Signal;HPM_P1;HPM_P2
2022/09/06 00:00:28;;;;;;;6.47;5.05;;;14.60;99.90;;;;;;4897522;29;20064;-82
2022/09/06 00:02:56;;;;;;;7.82;4.75;;;14.60;99.90;;;;;;4896256;29;20562;-81
2022/09/06 00:05:24;;;;;;;5.05;4.65;;;14.60;99.90;;;;;;4896171;29;20063;-82
2022/09/06 00:07:52;;;;;;;5.93;4.85;;;14.60;99.90;;;;;;4893304;29;20505;-82
2022/09/06 00:10:20;;;;;;;5.07;4.53;;;14.50;99.90;;;;;;4877722;29;20391;-81
2022/09/06 00:12:47;;;;;;;4.57;4.13;;;14.50;99.90;;;;;;4877176;29;20434;-81
2022/09/06 00:15:15;;;;;;;4.60;3.95;;;14.50;99.90;;;;;;4879357;29;20049;-81
2022/09/06 00:17:45;;;;;;;4.55;4.10;;;14.40;99.90;;;;;;4876810;29;20075;-82
2022/09/06 00:20:14;;;;;;;4.70;4.30;;;14.40;99.90;;;;;;4876591;29;20523;-82
2022/09/06 00:22:41;;;;;;;5.90;4.57;;;14.30;99.90;;;;;;4876313;29;20064;-81
2022/09/06 00:25:10;;;;;;;6.72;4.95;;;14.30;99.90;;;;;;4861703;29;20056;-81
2022/09/06 00:27:37;;;;;;;5.40;4.90;;;14.30;99.90;;;;;;4861678;29;20414;-81
2022/09/06 00:30:06;;;;;;;5.57;4.43;;;14.30;99.90;;;;;;4878282;29;20053;-82
2022/09/06 00:32:33;;;;;;;4.50;4.13;;;14.30;99.90;;;;;;4876771;29;20440;-81
2022/09/06 00:35:01;;;;;;;6.50;5.63;;;14.30;99.90;;;;;;4879383;29;20052;-81
2022/09/06 00:37:29;;;;;;;5.18;4.63;;;14.30;99.90;;;;;;4859571;29;20049;-81
2022/09/06 00:39:56;;;;;;;6.68;5.82;;;14.30;99.90;;;;;;4861058;29;20063;-81
2022/09/06 00:42:24;;;;;;;4.07;3.78;;;14.30;99.90;;;;;;4861871;29;20064;-81
2022/09/06 00:44:52;;;;;;;5.32;4.82;;;14.30;99.90;;;;;;4846174;29;20534;-81
2022/09/06 00:47:20;;;;;;;5.00;4.50;;;14.20;99.90;;;;;;4861839;29;20045;-82
2022/09/06 00:49:53;;;;;;;4.70;4.30;;;14.20;99.90;;;;;;4860669;29;20049;-82
2022/09/06 00:52:22;;;;;;;6.53;5.53;;;14.10;99.90;;;;;;4872245;29;20060;-81
2022/09/06 00:54:50;;;;;;;4.63;4.22;;;13.90;99.90;;;;;;4892119;29;20061;-82
2022/09/06 00:57:18;;;;;;;4.45;3.38;;;13.80;99.90;;;;;;4895286;29;20049;-81
2022/09/06 00:59:47;;;;;;;5.20;4.47;;;13.70;99.90;;;;;;4863737;29;20150;-82
2022/09/06 01:02:15;;;;;;;4.60;4.13;;;13.80;99.90;;;;;;4895711;29;20060;-81
2022/09/06 01:04:44;;;;;;;3.22;3.00;;;13.80;99.90;;;;;;4894702;29;20051;-81
2022/09/06 01:07:45;;;;;;;4.90;4.45;;;13.70;99.90;;;;;;4880131;29;20044;-81
2022/09/06 01:10:46;;;;;;;14.20;6.38;;;13.70;99.90;;;;;;4878658;29;20063;-82
2022/09/06 01:13:58;;;;;;;5.78;3.40;;;13.60;99.90;;;;;;4896204;29;20107;-82
2022/09/06 01:17:06;;;;;;;5.88;4.05;;;13.70;99.90;;;;;;4807415;29;20057;-81
2022/09/06 01:20:11;;;;;;;5.10;4.47;;;13.80;99.90;;;;;;4893770;29;20051;-82
2022/09/06 01:22:58;;;;;;;5.60;4.60;;;13.70;99.90;;;;;;4893621;29;20060;-81
2022/09/06 01:25:47;;;;;;;6.63;5.15;;;13.60;99.90;;;;;;4894633;29;20051;-81
2022/09/06 01:28:33;;;;;;;6.65;5.85;;;13.60;99.90;;;;;;4894165;29;20052;-81
2022/09/06 01:31:37;;;;;;;5.38;4.88;;;13.70;99.90;;;;;;4871324;29;20053;-82
2022/09/06 01:34:04;;;;;;;5.85;5.25;;;13.70;99.90;;;;;;4858189;29;20060;-81
2022/09/06 01:36:51;;;;;;;7.28;6.43;;;13.60;99.90;;;;;;4857541;29;20550;-81
2022/09/06 01:39:38;;;;;;;5.68;5.22;;;13.70;99.90;;;;;;4841902;29;20056;-81
2022/09/06 01:42:19;;;;;;;5.03;4.63;;;13.70;99.90;;;;;;4843336;29;20057;-82
2022/09/06 01:44:55;;;;;;;5.18;4.68;;;13.60;99.90;;;;;;4844854;29;20503;-82
2022/09/06 01:47:31;;;;;;;5.88;5.28;;;13.60;99.90;;;;;;4860794;29;20519;-81
2022/09/06 01:50:02;;;;;;;4.90;4.22;;;13.60;99.90;;;;;;4829116;29;20053;-82
2022/09/06 01:52:56;;;;;;;6.80;5.17;;;13.50;99.90;;;;;;4843258;29;20407;-82
2022/09/06 01:55:48;;;;;;;6.38;3.90;;;13.50;99.90;;;;;;4898135;29;20300;-81
2022/09/06 01:58:53;;;;;;;5.88;5.30;;;13.40;99.90;;;;;;4881389;29;20059;-81
2022/09/06 02:01:26;;;;;;;6.70;5.45;;;13.30;99.90;;;;;;4877837;29;20449;-82
2022/09/06 02:04:06;;;;;;;4.57;4.18;;;13.30;99.90;;;;;;4897048;29;20512;-81
2022/09/06 02:06:42;;;;;;;5.43;4.93;;;13.20;99.90;;;;;;4866217;29;20075;-81
2022/09/06 02:09:15;;;;;;;7.32;6.63;;;13.20;99.90;;;;;;4865245;29;20045;-80
2022/09/06 02:11:48;;;;;;;15.02;7.07;;;13.10;99.90;;;;;;4859513;29;20049;-81
2022/09/06 02:14:21;;;;;;;5.53;5.03;;;13.10;99.90;;;;;;4877334;29;20424;-82
2022/09/06 02:16:52;;;;;;;6.45;4.93;;;13.10;99.90;;;;;;4859804;29;20048;-81
2022/09/06 02:19:25;;;;;;;5.43;4.55;;;13.10;99.90;;;;;;4844191;29;20045;-81
2022/09/06 02:21:55;;;;;;;6.80;6.03;;;13.10;99.90;;;;;;4859276;29;20045;-82
2022/09/06 02:24:29;;;;;;;6.60;5.88;;;13.10;99.90;;;;;;4858170;29;20056;-81
2022/09/06 02:26:57;;;;;;;9.10;6.88;;;13.20;99.90;;;;;;4844736;29;20048;-81
2022/09/06 02:29:26;;;;;;;8.07;6.82;;;13.20;99.90;;;;;;4858828;29;20053;-82
2022/09/06 02:32:21;;;;;;;6.88;6.28;;;13.40;99.90;;;;;;4859546;29;20049;-81
2022/09/06 02:34:55;;;;;;;6.30;5.65;;;13.40;99.90;;;;;;4843349;29;20496;-81
2022/09/06 02:37:24;;;;;;;6.55;5.95;;;13.30;99.90;;;;;;4858433;29;20056;-81
2022/09/06 02:39:54;;;;;;;7.80;6.90;;;13.30;99.90;;;;;;4858860;29;20049;-81
2022/09/06 02:42:23;;;;;;;8.90;6.07;;;13.30;99.90;;;;;;4876334;29;20045;-81
2022/09/06 02:44:51;;;;;;;6.68;6.07;;;13.30;99.90;;;;;;4876081;29;20484;-81
2022/09/06 02:47:19;;;;;;;5.60;5.10;;;13.30;99.90;;;;;;4843997;29;20068;-82
2022/09/06 02:49:46;;;;;;;6.05;5.28;;;13.30;99.90;;;;;;4858985;29;20053;-81
2022/09/06 02:52:14;;;;;;;5.68;5.10;;;13.30;99.90;;;;;;4875728;29;20045;-81
2022/09/06 02:54:42;;;;;;;7.70;6.03;;;13.20;99.90;;;;;;4907366;29;20495;-80
2022/09/06 02:57:10;;;;;;;10.65;6.90;;;13.10;99.90;;;;;;4896533;29;20051;-82
2022/09/06 02:59:37;;;;;;;7.93;6.00;;;13.10;99.90;;;;;;4880395;29;20059;-81
2022/09/06 03:02:05;;;;;;;7.38;5.30;;;13.20;99.90;;;;;;4881473;29;20430;-81
2022/09/06 03:04:33;;;;;;;12.60;9.60;;;13.20;99.90;;;;;;4896090;29;20048;-81
2022/09/06 03:07:01;;;;;;;6.55;5.95;;;13.20;99.90;;;;;;4881303;29;20405;-82
2022/09/06 03:09:28;;;;;;;6.40;5.72;;;13.20;99.90;;;;;;4878389;29;20052;-80
2022/09/06 03:11:56;;;;;;;7.40;6.70;;;13.10;99.90;;;;;;4913535;29;20494;-81
2022/09/06 03:14:24;;;;;;;8.70;7.80;;;13.10;99.90;;;;;;4896734;29;20490;-81
2022/09/06 03:16:51;;;;;;;8.35;6.95;;;13.20;99.90;;;;;;4913310;29;20048;-83
2022/09/06 03:19:20;;;;;;;7.53;6.40;;;13.20;99.90;;;;;;4895554;29;20509;-83
2022/09/06 03:21:48;;;;;;;7.85;7.07;;;13.20;99.90;;;;;;4912966;29;20044;-81
2022/09/06 03:24:15;;;;;;;8.00;7.07;;;13.20;99.90;;;;;;4894401;29;20047;-80
2022/09/06 03:26:43;;;;;;;9.43;8.10;;;13.20;99.90;;;;;;4896686;29;20052;-80
2022/09/06 03:29:11;;;;;;;9.32;8.05;;;13.20;99.90;;;;;;4895400;29;20513;-80
2022/09/06 03:31:38;;;;;;;10.32;7.43;;;13.30;99.90;;;;;;4875942;29;20057;-80
2022/09/06 03:34:06;;;;;;;9.52;7.85;;;13.30;99.90;;;;;;4859090;29;20068;-80
2022/09/06 03:36:37;;;;;;;12.95;8.48;;;13.20;99.90;;;;;;4875466;29;20210;-80
2022/09/06 03:39:06;;;;;;;30.55;11.25;;;13.10;99.90;;;;;;4857167;29;20048;-80
2022/09/06 03:41:33;;;;;;;6.50;5.90;;;13.10;99.90;;;;;;4858547;29;20053;-81
2022/09/06 03:44:01;;;;;;;11.48;8.90;;;13.10;99.90;;;;;;4843150;29;20233;-80
2022/09/06 03:46:29;;;;;;;10.60;8.77;;;13.10;99.90;;;;;;4859131;29;20049;-80
2022/09/06 03:48:58;;;;;;;6.05;5.43;;;13.10;99.90;;;;;;4873448;29;20049;-80
2022/09/06 03:51:26;;;;;;;9.95;7.70;;;12.90;99.90;;;;;;4858574;29;20049;-83
2022/09/06 03:53:54;;;;;;;7.38;6.15;;;12.90;99.90;;;;;;4876588;29;20521;-80
2022/09/06 03:56:22;;;;;;;7.47;6.72;;;13.10;99.90;;;;;;4912961;29;20048;-81
2022/09/06 03:58:49;;;;;;;9.50;8.45;;;13.10;99.90;;;;;;4895819;29;20387;-81
2022/09/06 04:01:17;;;;;;;7.47;6.47;;;13.10;99.90;;;;;;4880276;29;20044;-80
2022/09/06 04:03:45;;;;;;;8.60;7.30;;;13.20;99.90;;;;;;4912171;29;20056;-81
2022/09/06 04:06:13;;;;;;;6.55;5.32;;;13.20;99.90;;;;;;4880721;29;20052;-80
2022/09/06 04:08:40;;;;;;;7.38;6.10;;;13.20;99.90;;;;;;4867722;29;20507;-80
2022/09/06 04:11:08;;;;;;;7.32;6.05;;;13.30;99.90;;;;;;4859306;29;20395;-81
2022/09/06 04:13:36;;;;;;;9.13;6.22;;;13.40;99.90;;;;;;4858417;29;20518;-80
2022/09/06 04:16:04;;;;;;;8.52;7.18;;;13.40;99.90;;;;;;4875050;29;20053;-81
2022/09/06 04:18:32;;;;;;;6.22;5.63;;;13.40;99.90;;;;;;4842371;29;20072;-82
2022/09/06 04:21:00;;;;;;;6.88;6.00;;;13.40;99.90;;;;;;4858024;29;20072;-80
2022/09/06 04:23:28;;;;;;;7.97;5.63;;;13.50;99.90;;;;;;4874158;29;20045;-80
2022/09/06 04:25:58;;;;;;;7.55;5.20;;;13.50;99.90;;;;;;4875099;29;20053;-80
2022/09/06 04:28:26;;;;;;;6.32;5.72;;;13.50;99.90;;;;;;4874316;29;20060;-81
2022/09/06 04:30:56;;;;;;;7.50;6.07;;;13.50;99.90;;;;;;4878235;29;20060;-81
2022/09/06 04:33:32;;;;;;;6.53;5.20;;;13.50;99.90;;;;;;4862658;29;20439;-80
2022/09/06 04:36:01;;;;;;;7.22;4.95;;;13.50;99.90;;;;;;4878449;29;20048;-81
2022/09/06 04:38:33;;;;;;;5.50;4.93;;;13.50;99.90;;;;;;4876805;29;20503;-80
2022/09/06 04:41:00;;;;;;;11.07;5.60;;;13.50;99.90;;;;;;4862003;29;20049;-81
2022/09/06 04:43:28;;;;;;;4.85;4.35;;;13.50;99.90;;;;;;4878487;29;20057;-80
2022/09/06 04:46:02;;;;;;;5.40;4.90;;;13.50;99.90;;;;;;4861685;29;20049;-80
2022/09/06 04:48:30;;;;;;;6.43;5.85;;;13.50;99.90;;;;;;4845258;29;20049;-80
2022/09/06 04:50:57;;;;;;;5.35;4.85;;;13.50;99.90;;;;;;4878459;29;20052;-80
2022/09/06 04:53:25;;;;;;;6.47;4.63;;;13.50;99.90;;;;;;4888818;29;20087;-81
2022/09/06 04:55:56;;;;;;;10.95;5.30;;;13.50;99.90;;;;;;4898467;29;20071;-81
2022/09/06 04:58:24;;;;;;;5.05;4.65;;;13.60;99.90;;;;;;4898641;29;20040;-80
2022/09/06 05:00:51;;;;;;;5.18;4.68;;;13.60;99.90;;;;;;4898641;29;20044;-81
2022/09/06 05:03:19;;;;;;;4.70;4.30;;;13.60;99.90;;;;;;4915969;29;20044;-81
2022/09/06 05:05:47;;;;;;;5.35;3.88;;;13.70;99.90;;;;;;4898737;29;20064;-80
2022/09/06 05:08:14;;;;;;;4.88;4.22;;;13.70;99.90;;;;;;4880855;29;20048;-80
2022/09/06 05:10:42;;;;;;;5.85;4.45;;;13.80;99.90;;;;;;4898780;29;20055;-80
2022/09/06 05:13:10;;;;;;;5.50;4.13;;;13.80;99.90;;;;;;4898423;29;20047;-81
2022/09/06 05:15:37;;;;;;;4.55;4.10;;;13.80;99.90;;;;;;4898437;29;20052;-81
2022/09/06 05:18:06;;;;;;;6.07;5.43;;;13.90;99.90;;;;;;4867029;29;20501;-80
2022/09/06 05:20:33;;;;;;;4.22;3.70;;;13.90;99.90;;;;;;4915248;29;20410;-80
2022/09/06 05:23:01;;;;;;;4.65;4.25;;;14.00;99.90;;;;;;4913979;29;20052;-81
2022/09/06 05:25:29;;;;;;;5.60;5.05;;;14.10;99.90;;;;;;4882697;29;20068;-80
2022/09/06 05:27:57;;;;;;;5.18;4.50;;;14.20;99.90;;;;;;4898032;29;20085;-80
2022/09/06 05:30:25;;;;;;;4.65;4.13;;;14.20;99.90;;;;;;4872259;29;20069;-81
2022/09/06 05:32:53;;;;;;;5.57;4.93;;;14.30;99.90;;;;;;4877085;29;20522;-80
2022/09/06 05:35:20;;;;;;;5.25;3.60;;;14.30;99.90;;;;;;4845820;29;20056;-80
2022/09/06 05:37:48;;;;;;;7.97;5.18;;;14.40;99.90;;;;;;4843621;29;20056;-80
2022/09/06 05:40:15;;;;;;;4.57;3.55;;;14.40;99.90;;;;;;4859666;29;20426;-80
2022/09/06 05:42:43;;;;;;;4.22;3.83;;;14.50;99.90;;;;;;4859922;29;20053;-80
2022/09/06 05:45:11;;;;;;;5.03;3.50;;;14.60;99.90;;;;;;4877122;29;20045;-80
2022/09/06 05:47:39;;;;;;;11.60;3.85;;;14.60;99.90;;;;;;4860198;29;20048;-80
2022/09/06 05:50:07;;;;;;;3.55;3.25;;;14.70;99.90;;;;;;4859930;29;20045;-81
2022/09/06 05:52:35;;;;;;;7.80;4.15;;;14.80;99.90;;;;;;4858707;29;20060;-80
2022/09/06 05:55:03;;;;;;;10.30;4.07;;;14.80;99.90;;;;;;4915102;29;20055;-79
2022/09/06 05:57:31;;;;;;;5.32;4.60;;;14.90;99.90;;;;;;4914303;29;20410;-80
2022/09/06 05:59:59;;;;;;;6.90;4.40;;;15.10;99.90;;;;;;4913837;29;20051;-80
2022/09/06 06:02:27;;;;;;;6.50;4.32;;;15.20;99.90;;;;;;4881917;29;20462;-79
2022/09/06 06:04:54;;;;;;;4.20;3.80;;;15.40;99.90;;;;;;4914058;29;20055;-80
2022/09/06 06:07:22;;;;;;;4.70;4.25;;;15.40;99.90;;;;;;4880987;29;20048;-80
2022/09/06 06:09:50;;;;;;;3.92;3.58;;;15.60;99.90;;;;;;4880769;29;20053;-80
2022/09/06 06:12:18;;;;;;;10.15;3.45;;;15.90;99.90;;;;;;4876826;29;20076;-81
2022/09/06 06:14:45;;;;;;;5.93;3.22;;;16.10;99.90;;;;;;4845445;29;20415;-81
2022/09/06 06:17:13;;;;;;;4.15;3.78;;;16.30;99.90;;;;;;4859746;29;20056;-80
2022/09/06 06:19:41;;;;;;;4.72;3.55;;;16.40;99.90;;;;;;4843695;29;20060;-81
2022/09/06 06:22:09;;;;;;;6.60;3.97;;;16.40;99.90;;;;;;4844590;29;20061;-81
2022/09/06 06:24:36;;;;;;;5.22;3.90;;;16.50;99.90;;;;;;4827250;29;20049;-80
2022/09/06 06:27:04;;;;;;;3.55;3.25;;;16.80;99.90;;;;;;4876848;29;20053;-82
2022/09/06 06:29:32;;;;;;;4.95;3.50;;;17.00;99.90;;;;;;4858814;29;20049;-81
2022/09/06 06:31:59;;;;;;;5.45;4.30;;;16.90;99.90;;;;;;4875150;29;20399;-81
2022/09/06 06:34:27;;;;;;;4.70;4.30;;;16.90;99.90;;;;;;4876252;29;20052;-81
2022/09/06 06:36:55;;;;;;;4.43;3.97;;;16.90;99.90;;;;;;4844231;29;20044;-81
2022/09/06 06:39:23;;;;;;;6.50;4.72;;;17.20;99.90;;;;;;4857617;29;20061;-81
2022/09/06 06:41:54;;;;;;;5.03;4.53;;;17.30;99.90;;;;;;4875902;29;20045;-81
2022/09/06 06:44:36;;;;;;;5.68;4.57;;;17.20;99.90;;;;;;4843869;29;20049;-81
2022/09/06 06:47:04;;;;;;;4.68;4.28;;;17.10;99.90;;;;;;4876561;29;20483;-82
2022/09/06 06:49:32;;;;;;;4.18;3.78;;;17.00;99.90;;;;;;4875322;29;20045;-81
2022/09/06 06:52:00;;;;;;;4.68;4.18;;;16.90;99.90;;;;;;4877549;29;20052;-81
2022/09/06 06:54:28;;;;;;;5.93;4.88;;;16.90;99.90;;;;;;4907864;29;20056;-81
2022/09/06 06:56:56;;;;;;;4.25;3.95;;;16.90;99.90;;;;;;4865534;29;20060;-81
2022/09/06 06:59:24;;;;;;;4.20;3.83;;;16.90;99.90;;;;;;4880618;29;20406;-81
2022/09/06 07:01:51;;;;;;;4.50;4.10;;;17.10;99.90;;;;;;4880997;29;20107;-81
2022/09/06 07:04:20;;;;;;;4.95;4.55;;;17.10;99.90;;;;;;4896084;29;20041;-81
2022/09/06 07:06:50;;;;;;;3.97;3.65;;;17.20;99.90;;;;;;4897199;29;20390;-81
2022/09/06 07:09:38;;;;;;;4.10;3.77;;;17.30;99.90;;;;;;4911109;29;20055;-81
2022/09/06 07:12:25;;;;;;;3.53;3.15;;;17.40;99.90;;;;;;4883027;29;20075;-86
2022/09/06 07:14:54;;;;;;;13.50;3.72;;;17.50;99.90;;;;;;4881236;29;20044;-87
2022/09/06 07:17:22;;;;;;;4.82;4.22;;;17.60;99.90;;;;;;4880087;29;20525;-86
2022/09/06 07:19:50;;;;;;;6.45;4.15;;;17.60;99.90;;;;;;4912389;29;20173;-87
2022/09/06 07:22:39;;;;;;;5.70;3.97;;;17.70;99.90;;;;;;4881555;29;20600;-87
2022/09/06 07:25:08;;;;;;;5.95;4.72;;;17.90;99.90;;;;;;4912768;29;20383;-87
2022/09/06 07:27:36;;;;;;;16.50;5.25;;;18.00;99.90;;;;;;4880204;29;20063;-87
2022/09/06 07:30:19;;;;;;;5.88;3.75;;;18.00;99.90;;;;;;4885881;29;20484;-87
2022/09/06 07:32:47;;;;;;;4.60;3.67;;;18.10;99.90;;;;;;4858355;29;20092;-87
2022/09/06 07:35:15;;;;;;;3.05;2.83;;;18.20;99.90;;;;;;4859156;29;20080;-86
2022/09/06 07:37:51;;;;;;;20.30;4.75;;;18.30;99.90;;;;;;4841764;29;20076;-87
2022/09/06 07:40:18;;;;;;;5.95;4.60;;;18.60;99.90;;;;;;4857771;29;20057;-86
2022/09/06 07:42:46;;;;;;;4.13;3.72;;;18.90;99.90;;;;;;4854844;29;20068;-87
2022/09/06 07:45:14;;;;;;;2.63;2.38;;;19.10;99.90;;;;;;4839460;29;20050;-89
2022/09/06 07:47:53;;;;;;;4.20;3.83;;;19.10;99.90;;;;;;4840176;29;20481;-88
2022/09/06 07:50:21;;;;;;;2.33;1.90;;;19.10;99.90;;;;;;4855527;29;20052;-90
2022/09/06 07:53:12;;;;;;;4.05;2.72;;;19.30;99.90;;;;;;4849881;29;20052;-90
2022/09/06 07:55:49;;;;;;;6.25;2.75;;;19.40;99.90;;;;;;4892338;29;20048;-87
2022/09/06 07:58:16;;;;;;;4.43;2.05;;;19.40;99.90;;;;;;4891862;29;20509;-90
2022/09/06 08:00:44;;;;;;;5.65;1.92;;;19.60;99.90;;;;;;4892411;29;20502;-87
2022/09/06 08:03:33;;;;;;;3.05;1.30;;;19.90;99.90;;;;;;4892436;29;20060;-90
2022/09/06 08:06:05;;;;;;;5.30;1.45;;;20.10;99.90;;;;;;4875805;29;20056;-89
2022/09/06 08:08:41;;;;;;;1.38;1.27;;;20.20;99.90;;;;;;4883151;29;20416;-90
2022/09/06 08:11:32;;;;;;;2.65;1.77;;;20.30;99.90;;;;;;4872077;29;20049;-87
2022/09/06 08:14:04;;;;;;;1.90;1.80;;;20.00;99.90;;;;;;4858067;29;20049;-90
2022/09/06 08:16:40;;;;;;;2.03;1.33;;;19.80;99.90;;;;;;4844269;29;20046;-88
2022/09/06 08:19:11;;;;;;;2.47;1.40;;;19.70;99.90;;;;;;4859443;29;20404;-88
2022/09/06 08:21:58;;;;;;;1.63;1.52;;;19.60;99.90;;;;;;4858759;29;20057;-91
2022/09/06 08:24:26;;;;;;;2.13;1.60;;;19.60;99.90;;;;;;4858085;29;20045;-89
2022/09/06 08:26:57;;;;;;;5.28;1.52;;;19.70;99.90;;;;;;4858724;29;20060;-92
2022/09/06 08:29:26;;;;;;;3.42;1.98;;;19.60;99.90;;;;;;4858853;29;20060;-87
2022/09/06 08:31:56;;;;;;;2.17;1.92;;;19.50;99.90;;;;;;4859551;29;20396;-88
2022/09/06 08:34:45;;;;;;;2.05;1.35;;;19.30;99.90;;;;;;4857481;29;20381;-89
2022/09/06 08:37:16;;;;;;;3.72;1.50;;;19.20;99.90;;;;;;4842882;29;20057;-87
2022/09/06 08:39:57;;;;;;;;;;;19.10;99.90;;;;;;4843470;29;20038;-87
2022/09/06 08:42:28;;;;;;;4.17;2.23;;;18.90;99.90;;;;;;4858596;29;19924;-87
2022/09/06 08:45:11;;;;;;;6.70;2.45;;;18.90;99.90;;;;;;4851502;29;20056;-90
2022/09/06 08:55:11;;;;;;;13.00;1.70;;;18.90;99.90;;;;;;4832474;29;20404;-88
2022/09/06 08:58:16;;;;;;;1.40;1.33;;;19.00;99.90;;;;;;4836696;29;20050;-86
2022/09/06 09:01:01;;;;;;;5.95;1.10;;;19.10;99.90;;;;;;4842832;29;20508;-87
2022/09/06 09:03:35;;;;;;;6.30;1.52;;;19.10;99.90;;;;;;4824263;29;20512;-87
2022/09/06 09:06:05;;;;;;;3.85;1.63;;;19.30;99.90;;;;;;4823532;29;20053;-88
2022/09/06 09:08:52;;;;;;;1.40;1.27;;;19.50;99.90;;;;;;4837416;29;20050;-86
2022/09/06 09:11:48;;;;;;;3.03;1.60;;;19.90;99.90;;;;;;4841173;29;20066;-88
2022/09/06 09:14:34;;;;;;;2.15;1.95;;;20.10;99.90;;;;;;4823041;29;20050;-87
2022/09/06 09:17:24;;;;;;;1.98;1.80;;;20.10;99.90;;;;;;4823189;29;20046;-90
2022/09/06 09:19:52;;;;;;;1.63;1.50;;;19.80;99.90;;;;;;4838783;29;20448;-87
2022/09/06 09:22:32;;;;;;;3.78;1.33;;;19.80;99.90;;;;;;4839419;29;20048;-87
2022/09/06 09:25:06;;;;;;;1.75;1.63;;;19.70;99.90;;;;;;4840271;29;20050;-88
2022/09/06 09:27:36;;;;;;;6.82;2.03;;;19.70;99.90;;;;;;4840175;29;20054;-89
2022/09/06 09:30:06;;;;;;;;;;;19.70;99.90;;;;;;4831489;29;20405;-88
2022/09/06 09:32:54;;;;;;;5.68;1.42;;;19.80;99.90;;;;;;4801649;29;19929;-87
2022/09/06 09:35:41;;;;;;;1.88;1.50;;;19.90;99.90;;;;;;4802941;29;20055;-88
2022/09/06 09:38:12;;;;;;;1.58;1.48;;;20.00;99.90;;;;;;4829013;29;20050;-85
2022/09/06 09:40:49;;;;;;;1.48;1.20;;;20.10;99.90;;;;;;4803825;29;20048;-88
2022/09/06 09:43:24;;;;;;;2.63;1.40;;;20.20;99.90;;;;;;4787592;29;20058;-86
2022/09/06 09:46:28;;;;;;;2.38;1.48;;;20.40;99.90;;;;;;4787316;29;20065;-88
2022/09/06 09:49:03;;;;;;;1.85;1.50;;;20.50;99.90;;;;;;4802508;29;20077;-87
2022/09/06 09:51:40;;;;;;;2.25;1.48;;;20.70;99.90;;;;;;4803823;29;20054;-87
2022/09/06 09:54:28;;;;;;;1.90;1.60;;;20.80;99.90;;;;;;4828131;29;20421;-86
2022/09/06 10:01:28;;;;;;;2.30;1.77;;;20.80;99.90;;;;;;4873515;29;20049;-86
2022/09/06 10:04:10;;;;;;;2.50;2.08;;;20.70;99.90;;;;;;4859342;29;20621;-87
2022/09/06 10:07:11;;;;;;;1.20;1.17;;;20.70;99.90;;;;;;4832039;29;20056;-86
2022/09/06 10:09:45;;;;;;;3.90;1.58;;;20.80;99.90;;;;;;4839023;29;20069;-86
2022/09/06 10:12:26;;;;;;;3.83;1.85;;;21.20;99.90;;;;;;4841117;29;20053;-87
2022/09/06 10:14:56;;;;;;;4.18;1.67;;;21.50;99.90;;;;;;4841635;29;20061;-88
2022/09/06 10:17:36;;;;;;;5.53;1.75;;;21.70;99.90;;;;;;4840225;29;20531;-88
2022/09/06 10:20:11;;;;;;;2.45;1.60;;;21.70;99.90;;;;;;4830544;29;20507;-87
2022/09/06 10:22:51;;;;;;;4.07;1.52;;;21.90;99.90;;;;;;4839949;29;20061;-88
2022/09/06 10:25:35;;;;;;;2.22;1.33;;;22.00;99.90;;;;;;4826037;29;20056;-88
2022/09/06 10:28:21;;;;;;;1.33;1.23;;;22.10;99.90;;;;;;4839612;29;20045;-89
2022/09/06 10:30:54;;;;;;;1.20;1.10;;;22.20;99.90;;;;;;4841629;29;20042;-87
2022/09/06 10:33:44;;;;;;;1.40;1.30;;;22.30;99.90;;;;;;4838482;29;20049;-87
2022/09/06 10:36:37;;;;;;;2.50;1.23;;;22.40;99.90;;;;;;4825028;29;20049;-87
2022/09/06 10:39:44;;;;;;;2.80;1.70;;;22.30;99.90;;;;;;4822713;29;20068;-87
2022/09/06 10:42:52;;;;;;;2.55;1.40;;;22.30;99.90;;;;;;4794256;29;20052;-86
2022/09/06 10:45:28;;;;;;;4.78;1.88;;;22.30;99.90;;;;;;4807539;29;20523;-87
2022/09/06 10:48:12;;;;;;;3.78;2.22;;;22.30;99.90;;;;;;4808016;29;20045;-89
2022/09/06 10:50:53;;;;;;;1.48;1.38;;;22.50;99.90;;;;;;4808805;29;20076;-86
2022/09/06 10:53:20;;;;;;;2.13;1.83;;;22.50;99.90;;;;;;4844986;29;20045;-86
2022/09/06 10:56:20;;;;;;;1.98;1.85;;;22.50;99.90;;;;;;4876085;29;20414;-86
2022/09/06 10:59:01;;;;;;;2.30;2.03;;;22.70;99.90;;;;;;4835242;29;20706;-88
2022/09/06 11:01:55;;;;;;;8.15;1.60;;;22.80;99.90;;;;;;4846360;29;20067;-87
2022/09/06 11:04:54;;;;;;;8.30;1.83;;;22.90;99.90;;;;;;4863707;29;20517;-88
2022/09/06 11:07:55;;;;;;;1.70;1.60;;;23.00;99.90;;;;;;4847268;29;20057;-87
2022/09/06 11:10:54;;;;;;;3.17;1.95;;;23.00;99.90;;;;;;4875473;29;20482;-87
2022/09/06 11:13:31;;;;;;;3.03;2.10;;;23.00;99.90;;;;;;4874711;29;20394;-87
2022/09/06 11:16:12;;;;;;;8.23;4.38;;;23.00;99.90;;;;;;4848567;29;20048;-87
2022/09/06 11:19:06;;;;;;;2.38;2.15;;;23.00;99.90;;;;;;4876328;29;20431;-84
2022/09/06 11:22:06;;;;;;;2.08;1.95;;;23.00;99.90;;;;;;4852009;29;20052;-82
2022/09/06 11:24:39;;;;;;;2.10;1.90;;;23.00;99.90;;;;;;4892326;29;20041;-86
2022/09/06 11:27:24;;;;;;;2.10;1.90;;;22.90;99.90;;;;;;4877912;29;20048;-86
2022/09/06 11:29:57;;;;;;;1.98;1.60;;;23.00;99.90;;;;;;4866615;29;20053;-85
2022/09/06 11:32:36;;;;;;;4.25;1.58;;;22.90;99.90;;;;;;4827235;29;20400;-86
2022/09/06 11:35:31;;;;;;;2.15;1.95;;;23.10;99.90;;;;;;4837121;29;20046;-84
2022/09/06 11:38:14;;;;;;;1.42;1.33;;;23.30;99.90;;;;;;4834493;29;20073;-86
2022/09/06 11:40:57;;;;;;;1.58;1.48;;;23.40;99.90;;;;;;4823840;29;20038;-87
2022/09/06 11:43:50;;;;;;;3.63;2.40;;;23.50;99.90;;;;;;4825533;29;20596;-85
2022/09/06 11:46:39;;;;;;;3.17;2.90;;;23.60;99.90;;;;;;4795159;29;20393;-86
2022/09/06 11:49:37;;;;;;;1.33;1.23;;;23.70;99.90;;;;;;4839422;29;20378;-87
2022/09/06 11:52:43;;;;;;;2.20;1.92;;;23.80;99.90;;;;;;4824904;29;20038;-85
2022/09/06 11:55:23;;;;;;;1.65;1.55;;;24.00;99.90;;;;;;4842193;29;20050;-86
2022/09/06 11:58:15;;;;;;;1.90;1.33;;;24.00;99.90;;;;;;4823924;29;20518;-85
2022/09/06 12:00:45;;;;;;;1.42;1.33;;;24.00;99.90;;;;;;4824899;29;20496;-86
2022/09/06 12:03:45;;;;;;;2.65;2.45;;;24.10;99.90;;;;;;4824944;29;20054;-86
2022/09/06 12:06:39;;;;;;;1.50;1.40;;;24.30;99.90;;;;;;4838608;29;20497;-88
2022/09/06 12:09:38;;;;;;;6.00;2.05;;;24.40;99.90;;;;;;4822398;29;20060;-85
2022/09/06 12:12:10;;;;;;;1.52;1.30;;;24.50;99.90;;;;;;4787064;29;20062;-85
2022/09/06 12:14:48;;;;;;;4.82;1.48;;;24.50;99.90;;;;;;4811680;29;20058;-86
2022/09/06 12:17:20;;;;;;;2.80;2.60;;;24.60;99.90;;;;;;4824248;29;20069;-85
2022/09/06 12:20:05;;;;;;;2.53;2.17;;;24.70;99.90;;;;;;4816522;29;20401;-87
2022/09/06 12:22:39;;;;;;;3.35;1.60;;;24.80;99.90;;;;;;4807595;29;20058;-88
2022/09/06 12:25:41;;;;;;;3.65;2.13;;;24.90;99.90;;;;;;4839422;29;20057;-86
2022/09/06 12:28:33;;;;;;;1.88;1.52;;;25.00;99.90;;;;;;4838868;29;20057;-88
2022/09/06 12:31:23;;;;;;;1.95;1.50;;;25.00;99.90;;;;;;4841403;29;20507;-85
2022/09/06 12:33:53;;;;;;;1.35;1.25;;;25.00;99.90;;;;;;4840695;29;20054;-86
2022/09/06 12:36:29;;;;;;;1.60;1.50;;;25.00;99.90;;;;;;4824149;29;20065;-88
2022/09/06 12:39:01;;;;;;;3.60;1.70;;;25.00;99.90;;;;;;4839670;29;20050;-90
2022/09/06 12:41:42;;;;;;;1.75;1.63;;;25.00;99.90;;;;;;4839772;29;20061;-87
2022/09/06 12:44:13;;;;;;;2.03;1.75;;;25.10;99.90;;;;;;4838163;29;20046;-86
2022/09/06 12:46:50;;;;;;;3.13;1.60;;;25.00;99.90;;;;;;4823693;29;20053;-86
2022/09/06 12:49:21;;;;;;;2.25;2.05;;;25.00;99.90;;;;;;4837762;29;20050;-86
2022/09/06 12:52:04;;;;;;;6.50;1.83;;;25.10;99.90;;;;;;4829368;29;20061;-86
2022/09/06 12:54:32;;;;;;;1.77;1.65;;;24.80;99.90;;;;;;4853753;29;20072;-86
2022/09/06 12:57:14;;;;;;;;;;;24.80;99.90;;;;;;4861186;29;20045;-85
2022/09/06 12:59:55;;;;;;;1.92;1.65;;;24.70;99.90;;;;;;4855914;29;19935;-85
2022/09/06 13:02:54;;;;;;;2.92;1.67;;;24.60;99.90;;;;;;4844217;29;20061;-86
2022/09/06 13:05:23;;;;;;;4.13;2.00;;;24.50;99.90;;;;;;4856294;29;20052;-87
2022/09/06 13:07:54;;;;;;;2.28;1.50;;;24.60;99.90;;;;;;4824788;29;20527;-86
2022/09/06 13:10:25;;;;;;;2.97;2.10;;;24.90;99.90;;;;;;4827026;29;20061;-84
2022/09/06 13:12:58;;;;;;;2.63;1.40;;;25.20;99.90;;;;;;4842867;29;20068;-85
2022/09/06 13:15:29;;;;;;;1.38;1.05;;;25.40;99.90;;;;;;4826911;29;20056;-88
2022/09/06 13:18:37;;;;;;;3.15;1.23;;;25.60;99.90;;;;;;5064932;28;20437;-86
2022/09/06 13:21:31;;;;;;;1.42;0.85;;;25.90;99.90;;;;;;5007026;28;20046;-85
2022/09/06 13:24:02;;;;;;;1.55;1.30;;;25.80;99.90;;;;;;4987252;28;20045;-84
2022/09/06 13:26:35;;;;;;;3.60;1.40;;;25.50;99.90;;;;;;5005102;28;20054;-85
2022/09/06 13:29:16;;;;;;;1.77;1.67;;;25.20;99.90;;;;;;5004270;28;20057;-84
2022/09/06 13:31:56;;;;;;;34.35;2.13;;;25.10;99.90;;;;;;5004627;28;20518;-85
2022/09/06 13:34:32;;;;;;;3.33;2.03;;;25.20;99.90;;;;;;5004510;28;20068;-85
2022/09/06 13:37:10;;;;;;;3.83;1.50;;;25.40;99.90;;;;;;4998450;28;20503;-84
2022/09/06 13:39:40;;;;;;;1.38;1.27;;;25.70;99.90;;;;;;5002031;28;20054;-85
2022/09/06 13:42:34;;;;;;;4.35;1.42;;;25.70;99.90;;;;;;5004935;28;20054;-85